sensor_id;sensor_type;location;lat;lon;timestamp;temperature;humidity
45339;DHT22;31071;51.478;5.710;2023-09-18T00:00:47;18.30;99.90
45339;DHT22;31071;51.478;5.710;2023-09-18T00:03:22;19.00;99.90
45339;DHT22;31071;51.478;5.710;2023-09-18T00:05:51;18.90;99.90
45339;DHT22;31071;51.478;5.710;2023-09-18T00:08:18;18.90;99.90
45339;DHT22;31071;51.478;5.710;2023-09-18T00:11:07;21.30;99.90
45339;DHT22;31071;51.478;5.710;2023-09-18T00:13:33;20.60;99.90
45339;DHT22;31071;51.478;5.710;2023-09-18T00:19:22;18.90;99.90
45339;DHT22;31071;51.478;5.710;2023-09-18T00:21:51;18.80;99.90
45339;DHT22;31071;51.478;5.710;2023-09-18T00:24:19;18.60;99.90
45339;DHT22;31071;51.478;5.710;2023-09-18T00:36:45;18.90;99.90
45339;DHT22;31071;51.478;5.710;2023-09-18T00:39:12;18.90;99.90
45339;DHT22;31071;51.478;5.710;2023-09-18T00:41:38;19.40;99.90
45339;DHT22;31071;51.478;5.710;2023-09-18T00:44:09;19.30;99.90
45339;DHT22;31071;51.478;5.710;2023-09-18T00:46:35;19.00;99.90
45339;DHT22;31071;51.478;5.710;2023-09-18T00:49:06;17.90;99.90
45339;DHT22;31071;51.478;5.710;2023-09-18T00:51:45;19.00;99.90
45339;DHT22;31071;51.478;5.710;2023-09-18T00:54:18;19.10;99.90
45339;DHT22;31071;51.478;5.710;2023-09-18T00:56:47;17.10;99.90
45339;DHT22;31071;51.478;5.710;2023-09-18T00:59:13;19.90;99.90
45339;DHT22;31071;51.478;5.710;2023-09-18T01:08:05;19.30;99.90
45339;DHT22;31071;51.478;5.710;2023-09-18T01:13:29;19.20;99.90
45339;DHT22;31071;51.478;5.710;2023-09-18T01:16:15;21.00;99.90
45339;DHT22;31071;51.478;5.710;2023-09-18T01:18:54;19.40;99.90
45339;DHT22;31071;51.478;5.710;2023-09-18T01:21:20;19.40;99.90
45339;DHT22;31071;51.478;5.710;2023-09-18T01:23:49;22.00;99.90
45339;DHT22;31071;51.478;5.710;2023-09-18T01:29:37;19.70;99.90
45339;DHT22;31071;51.478;5.710;2023-09-18T01:32:04;20.80;99.90
45339;DHT22;31071;51.478;5.710;2023-09-18T01:37:52;19.80;99.90
45339;DHT22;31071;51.478;5.710;2023-09-18T01:40:20;21.30;99.90
45339;DHT22;31071;51.478;5.710;2023-09-18T01:42:50;19.80;99.90
45339;DHT22;31071;51.478;5.710;2023-09-18T01:45:17;20.70;99.90
45339;DHT22;31071;51.478;5.710;2023-09-18T01:47:46;19.80;99.90
45339;DHT22;31071;51.478;5.710;2023-09-18T01:50:12;22.20;99.90
45339;DHT22;31071;51.478;5.710;2023-09-18T01:52:38;19.90;99.90
45339;DHT22;31071;51.478;5.710;2023-09-18T01:55:04;21.90;99.90
45339;DHT22;31071;51.478;5.710;2023-09-18T01:57:30;19.90;99.90
45339;DHT22;31071;51.478;5.710;2023-09-18T01:59:57;20.00;99.90
45339;DHT22;31071;51.478;5.710;2023-09-18T02:02:27;21.50;99.90
45339;DHT22;31071;51.478;5.710;2023-09-18T02:04:53;19.90;99.90
45339;DHT22;31071;51.478;5.710;2023-09-18T02:07:19;20.00;99.90
45339;DHT22;31071;51.478;5.710;2023-09-18T02:09:46;22.00;99.90
45339;DHT22;31071;51.478;5.710;2023-09-18T02:12:16;20.00;99.90
45339;DHT22;31071;51.478;5.710;2023-09-18T02:14:44;21.10;99.90
45339;DHT22;31071;51.478;5.710;2023-09-18T02:17:10;20.90;99.90
45339;DHT22;31071;51.478;5.710;2023-09-18T02:19:36;20.30;99.90
45339;DHT22;31071;51.478;5.710;2023-09-18T02:22:02;22.00;99.90
45339;DHT22;31071;51.478;5.710;2023-09-18T02:24:30;20.00;99.90
45339;DHT22;31071;51.478;5.710;2023-09-18T02:26:57;21.30;99.90
45339;DHT22;31071;51.478;5.710;2023-09-18T02:29:25;20.10;99.90
45339;DHT22;31071;51.478;5.710;2023-09-18T02:31:53;21.30;99.90
45339;DHT22;31071;51.478;5.710;2023-09-18T02:37:30;20.00;99.90
45339;DHT22;31071;51.478;5.710;2023-09-18T02:40:01;20.20;99.90
45339;DHT22;31071;51.478;5.710;2023-09-18T02:49:13;19.90;99.90
45339;DHT22;31071;51.478;5.710;2023-09-18T02:55:00;19.90;99.90
45339;DHT22;31071;51.478;5.710;2023-09-18T02:57:26;19.80;99.90
45339;DHT22;31071;51.478;5.710;2023-09-18T03:00:07;22.10;99.90
45339;DHT22;31071;51.478;5.710;2023-09-18T03:02:53;20.00;99.90
45339;DHT22;31071;51.478;5.710;2023-09-18T03:05:22;19.70;99.90
45339;DHT22;31071;51.478;5.710;2023-09-18T03:14:10;20.30;99.90
45339;DHT22;31071;51.478;5.710;2023-09-18T03:16:36;18.60;99.90
45339;DHT22;31071;51.478;5.710;2023-09-18T03:19:05;20.60;99.90
45339;DHT22;31071;51.478;5.710;2023-09-18T03:21:31;20.10;99.90
45339;DHT22;31071;51.478;5.710;2023-09-18T03:23:59;21.60;99.90
45339;DHT22;31071;51.478;5.710;2023-09-18T03:26:28;20.50;99.90
45339;DHT22;31071;51.478;5.710;2023-09-18T03:28:56;22.50;99.90
45339;DHT22;31071;51.478;5.710;2023-09-18T03:34:44;20.00;99.90
45339;DHT22;31071;51.478;5.710;2023-09-18T03:40:32;20.10;99.90
45339;DHT22;31071;51.478;5.710;2023-09-18T03:42:59;20.30;99.90
45339;DHT22;31071;51.478;5.710;2023-09-18T03:45:24;22.20;99.90
45339;DHT22;31071;51.478;5.710;2023-09-18T03:47:51;20.30;99.90
45339;DHT22;31071;51.478;5.710;2023-09-18T03:50:17;23.00;99.90
45339;DHT22;31071;51.478;5.710;2023-09-18T03:52:43;20.80;99.90
45339;DHT22;31071;51.478;5.710;2023-09-18T03:58:31;20.60;99.90
45339;DHT22;31071;51.478;5.710;2023-09-18T04:00:57;20.50;99.90
45339;DHT22;31071;51.478;5.710;2023-09-18T04:03:24;21.00;99.90
45339;DHT22;31071;51.478;5.710;2023-09-18T04:09:14;20.60;99.90
45339;DHT22;31071;51.478;5.710;2023-09-18T04:11:40;20.90;99.90
45339;DHT22;31071;51.478;5.710;2023-09-18T04:14:07;20.40;99.90
45339;DHT22;31071;51.478;5.710;2023-09-18T04:20:26;20.40;99.90
45339;DHT22;31071;51.478;5.710;2023-09-18T04:23:19;20.60;99.90
45339;DHT22;31071;51.478;5.710;2023-09-18T04:25:45;20.30;99.90
45339;DHT22;31071;51.478;5.710;2023-09-18T04:28:20;20.30;99.90
45339;DHT22;31071;51.478;5.710;2023-09-18T04:30:52;20.30;99.90
45339;DHT22;31071;51.478;5.710;2023-09-18T04:46:45;20.30;99.90
45339;DHT22;31071;51.478;5.710;2023-09-18T04:49:21;21.30;99.90
45339;DHT22;31071;51.478;5.710;2023-09-18T04:51:49;22.60;99.90
45339;DHT22;31071;51.478;5.710;2023-09-18T04:54:16;20.40;99.90
45339;DHT22;31071;51.478;5.710;2023-09-18T04:56:46;20.30;99.90
45339;DHT22;31071;51.478;5.710;2023-09-18T04:59:15;22.80;99.90
45339;DHT22;31071;51.478;5.710;2023-09-18T05:05:26;20.50;99.90
45339;DHT22;31071;51.478;5.710;2023-09-18T05:11:17;20.50;99.90
45339;DHT22;31071;51.478;5.710;2023-09-18T05:13:44;22.90;99.90
45339;DHT22;31071;51.478;5.710;2023-09-18T05:16:10;20.40;99.90
45339;DHT22;31071;51.478;5.710;2023-09-18T05:18:37;20.20;99.90
45339;DHT22;31071;51.478;5.710;2023-09-18T05:21:06;22.50;99.90
45339;DHT22;31071;51.478;5.710;2023-09-18T05:23:32;22.50;99.90
45339;DHT22;31071;51.478;5.710;2023-09-18T05:25:59;20.20;99.90
45339;DHT22;31071;51.478;5.710;2023-09-18T05:28:30;20.20;99.90
45339;DHT22;31071;51.478;5.710;2023-09-18T05:30:56;20.10;99.90
45339;DHT22;31071;51.478;5.710;2023-09-18T05:33:23;22.60;99.90
45339;DHT22;31071;51.478;5.710;2023-09-18T05:35:49;20.00;99.90
45339;DHT22;31071;51.478;5.710;2023-09-18T05:38:15;22.20;99.90
45339;DHT22;31071;51.478;5.710;2023-09-18T05:40:43;21.20;99.90
45339;DHT22;31071;51.478;5.710;2023-09-18T05:43:26;22.40;99.90
45339;DHT22;31071;51.478;5.710;2023-09-18T05:45:52;20.00;99.90
45339;DHT22;31071;51.478;5.710;2023-09-18T05:48:18;21.20;99.90
45339;DHT22;31071;51.478;5.710;2023-09-18T05:50:49;20.20;99.90
45339;DHT22;31071;51.478;5.710;2023-09-18T05:53:14;22.10;99.90
45339;DHT22;31071;51.478;5.710;2023-09-18T05:55:42;18.60;99.90
45339;DHT22;31071;51.478;5.710;2023-09-18T05:58:07;19.90;99.90
45339;DHT22;31071;51.478;5.710;2023-09-18T06:00:34;22.00;99.90
45339;DHT22;31071;51.478;5.710;2023-09-18T06:02:59;18.30;99.90
45339;DHT22;31071;51.478;5.710;2023-09-18T06:05:45;20.00;99.90
45339;DHT22;31071;51.478;5.710;2023-09-18T06:08:12;20.00;99.90
45339;DHT22;31071;51.478;5.710;2023-09-18T06:10:38;18.50;99.90
45339;DHT22;31071;51.478;5.710;2023-09-18T06:13:09;21.20;99.90
45339;DHT22;31071;51.478;5.710;2023-09-18T06:15:40;20.10;99.90
45339;DHT22;31071;51.478;5.710;2023-09-18T06:18:07;20.00;99.90
45339;DHT22;31071;51.478;5.710;2023-09-18T06:21:06;22.60;99.90
45339;DHT22;31071;51.478;5.710;2023-09-18T06:23:32;19.80;99.90
45339;DHT22;31071;51.478;5.710;2023-09-18T06:29:23;19.90;99.90
45339;DHT22;31071;51.478;5.710;2023-09-18T06:31:52;19.80;99.90
45339;DHT22;31071;51.478;5.710;2023-09-18T06:34:18;22.50;99.90
45339;DHT22;31071;51.478;5.710;2023-09-18T06:36:45;22.50;99.90
45339;DHT22;31071;51.478;5.710;2023-09-18T06:39:11;20.00;99.90
45339;DHT22;31071;51.478;5.710;2023-09-18T06:41:39;22.60;99.90
45339;DHT22;31071;51.478;5.710;2023-09-18T06:44:18;19.80;99.90
45339;DHT22;31071;51.478;5.710;2023-09-18T06:46:44;22.20;99.90
45339;DHT22;31071;51.478;5.710;2023-09-18T06:49:14;19.20;99.90
45339;DHT22;31071;51.478;5.710;2023-09-18T06:51:43;19.80;99.90
45339;DHT22;31071;51.478;5.710;2023-09-18T06:54:10;20.40;99.90
45339;DHT22;31071;51.478;5.710;2023-09-18T07:00:01;19.90;99.90
45339;DHT22;31071;51.478;5.710;2023-09-18T07:02:32;21.10;99.90
45339;DHT22;31071;51.478;5.710;2023-09-18T07:04:58;20.90;99.90
45339;DHT22;31071;51.478;5.710;2023-09-18T07:10:53;19.80;99.90
45339;DHT22;31071;51.478;5.710;2023-09-18T07:23:27;19.80;99.90
45339;DHT22;31071;51.478;5.710;2023-09-18T07:25:53;19.70;99.90
45339;DHT22;31071;51.478;5.710;2023-09-18T07:28:21;19.70;99.90
45339;DHT22;31071;51.478;5.710;2023-09-18T07:34:10;19.80;99.90
45339;DHT22;31071;51.478;5.710;2023-09-18T07:36:36;19.80;99.90
45339;DHT22;31071;51.478;5.710;2023-09-18T07:39:06;19.80;99.90
45339;DHT22;31071;51.478;5.710;2023-09-18T07:48:19;19.80;99.90
45339;DHT22;31071;51.478;5.710;2023-09-18T07:50:47;22.30;99.90
45339;DHT22;31071;51.478;5.710;2023-09-18T07:53:14;18.80;99.90
45339;DHT22;31071;51.478;5.710;2023-09-18T07:55:41;20.00;99.90
45339;DHT22;31071;51.478;5.710;2023-09-18T07:58:07;20.70;99.90
45339;DHT22;31071;51.478;5.710;2023-09-18T08:00:35;22.20;99.90
45339;DHT22;31071;51.478;5.710;2023-09-18T08:06:22;19.80;99.90
45339;DHT22;31071;51.478;5.710;2023-09-18T08:08:48;19.90;99.90
45339;DHT22;31071;51.478;5.710;2023-09-18T08:14:36;19.10;99.90
45339;DHT22;31071;51.478;5.710;2023-09-18T08:17:04;18.50;99.90
45339;DHT22;31071;51.478;5.710;2023-09-18T08:19:38;21.20;99.90
45339;DHT22;31071;51.478;5.710;2023-09-18T08:22:05;20.60;99.90
45339;DHT22;31071;51.478;5.710;2023-09-18T08:24:31;19.30;99.90
45339;DHT22;31071;51.478;5.710;2023-09-18T08:27:19;20.40;99.90
45339;DHT22;31071;51.478;5.710;2023-09-18T08:33:06;20.40;99.90
45339;DHT22;31071;51.478;5.710;2023-09-18T08:35:32;22.70;99.90
45339;DHT22;31071;51.478;5.710;2023-09-18T08:38:05;21.80;99.90
45339;DHT22;31071;51.478;5.710;2023-09-18T08:44:00;20.20;99.90
45339;DHT22;31071;51.478;5.710;2023-09-18T08:46:26;22.60;99.90
45339;DHT22;31071;51.478;5.710;2023-09-18T08:48:52;22.50;99.90
45339;DHT22;31071;51.478;5.710;2023-09-18T08:51:21;22.30;99.90
45339;DHT22;31071;51.478;5.710;2023-09-18T08:53:48;22.60;99.90
45339;DHT22;31071;51.478;5.710;2023-09-18T08:56:17;20.80;99.90
45339;DHT22;31071;51.478;5.710;2023-09-18T08:58:43;22.30;99.90
45339;DHT22;31071;51.478;5.710;2023-09-18T09:01:11;21.30;99.90
45339;DHT22;31071;51.478;5.710;2023-09-18T09:03:42;20.60;99.90
45339;DHT22;31071;51.478;5.710;2023-09-18T09:06:12;22.50;99.90
45339;DHT22;31071;51.478;5.710;2023-09-18T09:08:39;20.50;99.90
45339;DHT22;31071;51.478;5.710;2023-09-18T09:11:05;22.70;99.90
45339;DHT22;31071;51.478;5.710;2023-09-18T09:13:35;20.40;99.90
45339;DHT22;31071;51.478;5.710;2023-09-18T09:16:02;20.70;99.90
45339;DHT22;31071;51.478;5.710;2023-09-18T09:18:29;21.20;99.90
45339;DHT22;31071;51.478;5.710;2023-09-18T09:21:02;23.50;99.90
45339;DHT22;31071;51.478;5.710;2023-09-18T09:26:16;22.00;99.90
45339;DHT22;31071;51.478;5.710;2023-09-18T09:28:45;21.90;99.90
45339;DHT22;31071;51.478;5.710;2023-09-18T09:31:26;22.20;99.90
45339;DHT22;31071;51.478;5.710;2023-09-18T09:33:53;25.20;99.90
45339;DHT22;31071;51.478;5.710;2023-09-18T09:36:24;23.90;99.90
45339;DHT22;31071;51.478;5.710;2023-09-18T09:45:11;23.50;99.90
45339;DHT22;31071;51.478;5.710;2023-09-18T09:47:37;23.60;99.90
45339;DHT22;31071;51.478;5.710;2023-09-18T09:50:13;24.00;99.90
45339;DHT22;31071;51.478;5.710;2023-09-18T09:52:43;24.40;99.90
45339;DHT22;31071;51.478;5.710;2023-09-18T09:57:59;23.60;99.90
45339;DHT22;31071;51.478;5.710;2023-09-18T10:00:49;23.40;99.90
45339;DHT22;31071;51.478;5.710;2023-09-18T10:03:19;23.10;99.90
45339;DHT22;31071;51.478;5.710;2023-09-18T10:05:56;23.20;99.90
45339;DHT22;31071;51.478;5.710;2023-09-18T10:08:25;23.00;99.90
45339;DHT22;31071;51.478;5.710;2023-09-18T10:11:02;22.80;99.90
45339;DHT22;31071;51.478;5.710;2023-09-18T10:13:46;22.70;99.90
45339;DHT22;31071;51.478;5.710;2023-09-18T10:16:13;22.50;99.90
45339;DHT22;31071;51.478;5.710;2023-09-18T10:24:23;22.70;99.90
45339;DHT22;31071;51.478;5.710;2023-09-18T10:27:01;22.90;99.90
45339;DHT22;31071;51.478;5.710;2023-09-18T10:29:32;22.80;99.90
45339;DHT22;31071;51.478;5.710;2023-09-18T10:31:59;22.70;99.90
45339;DHT22;31071;51.478;5.710;2023-09-18T10:34:30;22.30;99.90
45339;DHT22;31071;51.478;5.710;2023-09-18T10:37:01;23.10;99.90
45339;DHT22;31071;51.478;5.710;2023-09-18T10:39:36;22.20;99.90
45339;DHT22;31071;51.478;5.710;2023-09-18T10:42:08;22.70;99.90
45339;DHT22;31071;51.478;5.710;2023-09-18T10:44:35;23.40;99.90
45339;DHT22;31071;51.478;5.710;2023-09-18T10:47:03;23.70;99.90
45339;DHT22;31071;51.478;5.710;2023-09-18T10:52:53;23.20;99.90
45339;DHT22;31071;51.478;5.710;2023-09-18T11:02:05;23.60;99.90
45339;DHT22;31071;51.478;5.710;2023-09-18T11:04:33;22.80;99.90
45339;DHT22;31071;51.478;5.710;2023-09-18T11:07:02;24.70;99.90
45339;DHT22;31071;51.478;5.710;2023-09-18T11:13:11;23.50;99.90
45339;DHT22;31071;51.478;5.710;2023-09-18T11:19:11;24.30;99.90
45339;DHT22;31071;51.478;5.710;2023-09-18T11:28:40;24.10;99.90
45339;DHT22;31071;51.478;5.710;2023-09-18T11:31:08;24.40;99.90
45339;DHT22;31071;51.478;5.710;2023-09-18T11:33:39;24.10;99.90
45339;DHT22;31071;51.478;5.710;2023-09-18T11:36:13;26.00;99.90
45339;DHT22;31071;51.478;5.710;2023-09-18T11:42:10;23.00;99.90
45339;DHT22;31071;51.478;5.710;2023-09-18T11:47:59;23.20;99.90
45339;DHT22;31071;51.478;5.710;2023-09-18T11:50:27;23.00;99.90
45339;DHT22;31071;51.478;5.710;2023-09-18T11:52:57;22.60;99.90
45339;DHT22;31071;51.478;5.710;2023-09-18T11:55:23;22.50;99.90
45339;DHT22;31071;51.478;5.710;2023-09-18T12:01:11;21.80;99.90
45339;DHT22;31071;51.478;5.710;2023-09-18T12:03:38;23.60;99.90
45339;DHT22;31071;51.478;5.710;2023-09-18T12:06:04;22.70;99.90
45339;DHT22;31071;51.478;5.710;2023-09-18T12:08:31;23.80;99.90
45339;DHT22;31071;51.478;5.710;2023-09-18T12:14:24;25.30;99.90
45339;DHT22;31071;51.478;5.710;2023-09-18T12:16:52;27.00;97.30
45339;DHT22;31071;51.478;5.710;2023-09-18T12:19:19;27.80;95.10
45339;DHT22;31071;51.478;5.710;2023-09-18T12:21:46;27.30;94.10
45339;DHT22;31071;51.478;5.710;2023-09-18T12:24:20;26.70;95.50
45339;DHT22;31071;51.478;5.710;2023-09-18T12:26:46;26.90;95.30
45339;DHT22;31071;51.478;5.710;2023-09-18T12:29:13;27.30;94.80
45339;DHT22;31071;51.478;5.710;2023-09-18T12:31:39;27.90;93.70
45339;DHT22;31071;51.478;5.710;2023-09-18T12:34:13;28.30;93.50
45339;DHT22;31071;51.478;5.710;2023-09-18T12:40:01;27.60;92.70
45339;DHT22;31071;51.478;5.710;2023-09-18T12:42:27;27.10;93.60
45339;DHT22;31071;51.478;5.710;2023-09-18T12:44:54;28.50;93.60
45339;DHT22;31071;51.478;5.710;2023-09-18T12:47:22;27.50;94.30
45339;DHT22;31071;51.478;5.710;2023-09-18T12:49:51;28.00;91.80
45339;DHT22;31071;51.478;5.710;2023-09-18T12:52:22;28.50;92.30
45339;DHT22;31071;51.478;5.710;2023-09-18T12:54:47;27.80;91.60
45339;DHT22;31071;51.478;5.710;2023-09-18T12:57:22;27.90;91.50
45339;DHT22;31071;51.478;5.710;2023-09-18T12:59:48;26.10;93.00
45339;DHT22;31071;51.478;5.710;2023-09-18T13:02:23;24.90;93.10
45339;DHT22;31071;51.478;5.710;2023-09-18T13:04:58;27.10;92.30
45339;DHT22;31071;51.478;5.710;2023-09-18T13:07:25;27.00;91.50
45339;DHT22;31071;51.478;5.710;2023-09-18T13:10:00;26.70;91.70
45339;DHT22;31071;51.478;5.710;2023-09-18T13:12:38;26.80;92.80
45339;DHT22;31071;51.478;5.710;2023-09-18T13:15:05;25.20;93.90
45339;DHT22;31071;51.478;5.710;2023-09-18T13:17:41;24.70;94.90
45339;DHT22;31071;51.478;5.710;2023-09-18T13:20:15;24.30;94.90
45339;DHT22;31071;51.478;5.710;2023-09-18T13:22:51;25.40;94.30
45339;DHT22;31071;51.478;5.710;2023-09-18T13:38:34;27.70;91.50
45339;DHT22;31071;51.478;5.710;2023-09-18T13:41:01;27.90;90.60
45339;DHT22;31071;51.478;5.710;2023-09-18T13:43:55;26.90;91.20
45339;DHT22;31071;51.478;5.710;2023-09-18T13:46:22;26.50;92.10
45339;DHT22;31071;51.478;5.710;2023-09-18T13:48:51;26.10;92.70
45339;DHT22;31071;51.478;5.710;2023-09-18T14:01:24;24.70;94.60
45339;DHT22;31071;51.478;5.710;2023-09-18T14:03:52;24.80;93.50
45339;DHT22;31071;51.478;5.710;2023-09-18T14:06:17;24.90;94.30
45339;DHT22;31071;51.478;5.710;2023-09-18T14:08:44;24.60;93.70
45339;DHT22;31071;51.478;5.710;2023-09-18T14:14:32;24.40;94.00
45339;DHT22;31071;51.478;5.710;2023-09-18T14:16:58;25.00;94.70
45339;DHT22;31071;51.478;5.710;2023-09-18T14:19:24;24.20;94.50
45339;DHT22;31071;51.478;5.710;2023-09-18T14:21:51;23.90;95.20
45339;DHT22;31071;51.478;5.710;2023-09-18T14:27:41;24.40;94.90
45339;DHT22;31071;51.478;5.710;2023-09-18T14:30:09;24.60;93.90
45339;DHT22;31071;51.478;5.710;2023-09-18T14:32:36;24.40;93.90
45339;DHT22;31071;51.478;5.710;2023-09-18T14:35:03;24.50;94.00
45339;DHT22;31071;51.478;5.710;2023-09-18T14:37:31;24.60;93.00
45339;DHT22;31071;51.478;5.710;2023-09-18T14:39:56;24.50;93.10
45339;DHT22;31071;51.478;5.710;2023-09-18T14:42:25;24.30;93.30
45339;DHT22;31071;51.478;5.710;2023-09-18T14:44:51;24.10;93.30
45339;DHT22;31071;51.478;5.710;2023-09-18T14:47:19;26.40;94.40
45339;DHT22;31071;51.478;5.710;2023-09-18T14:49:51;24.00;93.40
45339;DHT22;31071;51.478;5.710;2023-09-18T14:52:27;24.30;94.60
45339;DHT22;31071;51.478;5.710;2023-09-18T14:54:56;22.70;93.40
45339;DHT22;31071;51.478;5.710;2023-09-18T14:57:29;24.30;92.90
45339;DHT22;31071;51.478;5.710;2023-09-18T15:03:48;22.50;92.10
45339;DHT22;31071;51.478;5.710;2023-09-18T15:06:14;24.20;93.40
45339;DHT22;31071;51.478;5.710;2023-09-18T15:08:40;24.10;93.30
45339;DHT22;31071;51.478;5.710;2023-09-18T15:11:06;24.00;93.60
45339;DHT22;31071;51.478;5.710;2023-09-18T15:13:33;24.00;93.00
45339;DHT22;31071;51.478;5.710;2023-09-18T15:16:04;23.90;93.10
45339;DHT22;31071;51.478;5.710;2023-09-18T15:18:29;23.80;92.70
45339;DHT22;31071;51.478;5.710;2023-09-18T15:20:59;23.80;92.70
45339;DHT22;31071;51.478;5.710;2023-09-18T15:23:25;23.90;92.20
45339;DHT22;31071;51.478;5.710;2023-09-18T15:25:52;23.70;92.50
45339;DHT22;31071;51.478;5.710;2023-09-18T15:28:21;23.90;92.20
45339;DHT22;31071;51.478;5.710;2023-09-18T15:30:50;23.60;92.70
45339;DHT22;31071;51.478;5.710;2023-09-18T15:33:16;23.60;92.50
45339;DHT22;31071;51.478;5.710;2023-09-18T15:35:43;23.60;92.70
45339;DHT22;31071;51.478;5.710;2023-09-18T15:38:12;23.50;92.80
45339;DHT22;31071;51.478;5.710;2023-09-18T15:40:42;23.50;92.60
45339;DHT22;31071;51.478;5.710;2023-09-18T15:43:08;23.40;92.70
45339;DHT22;31071;51.478;5.710;2023-09-18T15:45:34;23.50;92.80
45339;DHT22;31071;51.478;5.710;2023-09-18T15:52:32;23.30;92.50
45339;DHT22;31071;51.478;5.710;2023-09-18T15:58:23;23.30;92.70
45339;DHT22;31071;51.478;5.710;2023-09-18T16:00:49;24.20;95.90
45339;DHT22;31071;51.478;5.710;2023-09-18T16:15:29;15.60;99.90
45339;DHT22;31071;51.478;5.710;2023-09-18T16:21:32;16.30;99.90
45339;DHT22;31071;51.478;5.710;2023-09-18T16:23:59;14.70;99.90
45339;DHT22;31071;51.478;5.710;2023-09-18T16:30:12;18.40;99.90
45339;DHT22;31071;51.478;5.710;2023-09-18T16:32:54;17.70;99.90
45339;DHT22;31071;51.478;5.710;2023-09-18T16:45:22;17.70;99.90
45339;DHT22;31071;51.478;5.710;2023-09-18T18:42:39;17.90;99.90
45339;DHT22;31071;51.478;5.710;2023-09-18T18:45:05;16.90;99.90
45339;DHT22;31071;51.478;5.710;2023-09-18T18:47:32;17.90;99.90
45339;DHT22;31071;51.478;5.710;2023-09-18T18:50:21;18.00;99.90
45339;DHT22;31071;51.478;5.710;2023-09-18T18:52:48;17.80;99.90
45339;DHT22;31071;51.478;5.710;2023-09-18T18:55:15;17.80;99.90
45339;DHT22;31071;51.478;5.710;2023-09-18T18:57:41;18.80;99.90
45339;DHT22;31071;51.478;5.710;2023-09-18T19:00:12;18.90;99.90
45339;DHT22;31071;51.478;5.710;2023-09-18T19:02:40;17.80;99.90
45339;DHT22;31071;51.478;5.710;2023-09-18T19:05:11;17.70;99.90
45339;DHT22;31071;51.478;5.710;2023-09-18T19:07:37;16.50;99.90
45339;DHT22;31071;51.478;5.710;2023-09-18T19:10:05;17.80;99.90
45339;DHT22;31071;51.478;5.710;2023-09-18T19:15:56;17.90;99.90
45339;DHT22;31071;51.478;5.710;2023-09-18T19:21:56;17.90;99.90
45339;DHT22;31071;51.478;5.710;2023-09-18T21:40:35;16.50;99.90
45339;DHT22;31071;51.478;5.710;2023-09-18T21:43:03;16.50;99.90
45339;DHT22;31071;51.478;5.710;2023-09-18T21:49:06;16.50;99.90
45339;DHT22;31071;51.478;5.710;2023-09-18T21:59:03;17.70;99.90
45339;DHT22;31071;51.478;5.710;2023-09-18T22:05:15;16.60;99.90
45339;DHT22;31071;51.478;5.710;2023-09-18T22:11:42;16.20;99.90
45339;DHT22;31071;51.478;5.710;2023-09-18T22:20:51;16.10;99.90
45339;DHT22;31071;51.478;5.710;2023-09-18T22:30:28;15.10;99.90
45339;DHT22;31071;51.478;5.710;2023-09-18T22:33:39;15.70;99.90
45339;DHT22;31071;51.478;5.710;2023-09-18T22:36:25;15.90;99.90
45339;DHT22;31071;51.478;5.710;2023-09-18T22:55:24;15.80;99.90
45339;DHT22;31071;51.478;5.710;2023-09-18T22:57:57;15.80;99.90
45339;DHT22;31071;51.478;5.710;2023-09-18T23:03:52;14.20;99.90
45339;DHT22;31071;51.478;5.710;2023-09-18T23:06:42;17.90;99.90
45339;DHT22;31071;51.478;5.710;2023-09-18T23:09:25;15.60;99.90
45339;DHT22;31071;51.478;5.710;2023-09-18T23:12:30;16.70;99.90
45339;DHT22;31071;51.478;5.710;2023-09-18T23:14:55;15.80;99.90
45339;DHT22;31071;51.478;5.710;2023-09-18T23:21:21;15.60;99.90
45339;DHT22;31071;51.478;5.710;2023-09-18T23:30:36;13.70;99.90
45339;DHT22;31071;51.478;5.710;2023-09-18T23:33:35;15.30;99.90
45339;DHT22;31071;51.478;5.710;2023-09-18T23:43:34;15.50;99.90
45339;DHT22;31071;51.478;5.710;2023-09-18T23:46:01;15.50;99.90
45339;DHT22;31071;51.478;5.710;2023-09-18T23:48:38;17.90;99.90
45339;DHT22;31071;51.478;5.710;2023-09-18T23:51:07;15.50;99.90
45339;DHT22;31071;51.478;5.710;2023-09-18T23:53:46;16.90;99.90
45339;DHT22;31071;51.478;5.710;2023-09-18T23:56:16;15.50;99.90
45339;DHT22;31071;51.478;5.710;2023-09-18T23:58:43;14.60;99.90
